Time;durP1;ratioP1;P1;durP2;ratioP2;P2;SDS_P1;SDS_P2;PMS_P1;PMS_P2;Temp;Humidity;BMP_temperature;BMP_pressure;BME280_temperature;BME280_humidity;BME280_pressure;Samples;Min_cycle;Max_cycle;Signal;HPM_P1;HPM_P2
2020/12/14 00:01:03;;;;;;;8.75;6.00;;;5.00;85.50;;;2.91;87.89;95809.38;4984411;28;20027;-71
2020/12/14 00:03:28;;;;;;;9.60;6.10;;;5.00;85.60;;;2.88;87.71;95804.50;4988842;28;20121;-70
2020/12/14 00:05:54;;;;;;;8.73;5.75;;;5.00;85.40;;;2.84;87.83;95803.97;4987983;28;20586;-70
2020/12/14 00:08:20;;;;;;;8.35;5.80;;;4.90;85.50;;;2.82;87.62;95800.72;4955319;28;20470;-71
2020/12/14 00:10:45;;;;;;;10.30;6.00;;;4.90;85.30;;;2.79;87.79;95798.44;4952865;28;20486;-70
2020/12/14 00:13:11;;;;;;;9.35;6.15;;;4.80;85.50;;;2.77;87.73;95797.75;4951454;28;20406;-70
2020/12/14 00:15:36;;;;;;;10.00;6.28;;;4.80;85.50;;;2.73;88.06;95802.44;5001842;28;20411;-69
2020/12/14 00:18:02;;;;;;;10.50;6.57;;;4.80;85.60;;;2.72;88.00;95798.22;4970392;28;20575;-71
2020/12/14 00:20:27;;;;;;;10.60;6.72;;;4.80;85.80;;;2.71;87.71;95798.31;4985915;28;20558;-70
2020/12/14 00:22:54;;;;;;;9.55;6.57;;;4.70;85.80;;;2.72;87.55;95794.78;4987457;28;20038;-70
2020/12/14 00:25:20;;;;;;;8.32;6.03;;;4.70;85.90;;;2.73;88.34;95801.63;4972328;28;20536;-70
2020/12/14 00:27:45;;;;;;;8.68;6.35;;;4.80;85.80;;;2.74;87.75;95800.66;4962253;28;20038;-69
2020/12/14 00:30:11;;;;;;;10.93;6.70;;;4.90;85.80;;;2.76;87.92;95806.50;4969701;28;20049;-70
2020/12/14 00:32:37;;;;;;;10.85;7.13;;;4.90;85.60;;;2.80;88.05;95800.06;4966472;28;20034;-69
2020/12/14 00:35:02;;;;;;;10.05;6.78;;;5.00;85.40;;;2.85;87.53;95800.41;4971394;28;20118;-72
2020/12/14 00:37:28;;;;;;;11.27;7.63;;;5.10;85.40;;;2.87;88.01;95798.50;4967590;28;20039;-70
2020/12/14 00:39:53;;;;;;;12.68;7.47;;;5.10;85.50;;;2.90;88.13;95803.38;4986144;28;20196;-69
2020/12/14 00:42:19;;;;;;;10.00;7.38;;;5.20;85.30;;;2.94;88.13;95791.75;4984715;28;20045;-71
2020/12/14 00:44:44;;;;;;;10.93;7.18;;;5.10;85.10;;;2.94;87.78;95783.13;4968886;28;20120;-70
2020/12/14 00:47:10;;;;;;;11.88;7.35;;;5.10;85.10;;;2.96;88.21;95795.00;4985827;28;20034;-69
2020/12/14 00:49:35;;;;;;;10.70;6.57;;;5.20;85.10;;;2.99;87.63;95792.13;4978023;23;20635;-73
2020/12/14 00:52:04;;;;;;;10.95;7.05;;;5.20;84.70;;;3.02;88.11;95793.59;4963765;28;20150;-73
2020/12/14 00:54:31;;;;;;;9.52;6.72;;;5.20;84.70;;;3.02;88.02;95793.59;4964577;28;20031;-72
2020/12/14 00:56:57;;;;;;;9.20;6.57;;;5.20;84.60;;;3.06;88.05;95802.72;4967245;28;20061;-73
2020/12/14 00:59:23;;;;;;;10.18;5.70;;;5.30;84.50;;;3.05;87.60;95794.09;4983789;28;20129;-72
2020/12/14 01:01:52;;;;;;;10.20;6.40;;;5.20;84.20;;;3.07;87.80;95801.75;4962115;28;20126;-72
2020/12/14 01:04:19;;;;;;;8.43;6.28;;;5.30;84.50;;;3.08;87.85;95805.97;4952095;28;20102;-72
2020/12/14 01:06:44;;;;;;;12.93;6.60;;;5.30;84.40;;;3.10;87.46;95803.22;4968573;28;20134;-73
2020/12/14 01:09:10;;;;;;;7.75;5.65;;;5.30;84.20;;;3.11;87.52;95812.66;4968412;28;20560;-72
2020/12/14 01:11:35;;;;;;;8.90;6.22;;;5.30;84.10;;;3.12;87.56;95809.91;4984144;28;20526;-72
2020/12/14 01:14:02;;;;;;;8.88;5.93;;;5.30;84.00;;;3.15;87.74;95816.56;4983061;28;20056;-73
2020/12/14 01:16:27;;;;;;;9.68;5.88;;;5.40;84.00;;;3.17;87.67;95825.03;4987438;28;20125;-72
2020/12/14 01:18:53;;;;;;;9.13;6.22;;;5.30;83.70;;;3.16;87.52;95829.41;4956146;28;20442;-72
2020/12/14 01:21:22;;;;;;;10.98;5.80;;;5.40;83.70;;;3.17;87.47;95836.28;4975541;28;20525;-73
2020/12/14 01:23:48;;;;;;;10.85;6.18;;;5.40;83.60;;;3.18;87.33;95847.50;4971431;28;20114;-72
2020/12/14 01:26:14;;;;;;;10.32;6.68;;;5.50;83.70;;;3.22;87.67;95854.03;4986665;28;20641;-71
2020/12/14 01:28:40;;;;;;;8.35;6.00;;;5.50;83.70;;;3.25;87.54;95845.91;4965450;28;20067;-72
2020/12/14 01:31:05;;;;;;;9.77;5.85;;;5.50;83.80;;;3.27;87.29;95854.38;4973615;28;20724;-72
2020/12/14 01:33:31;;;;;;;15.00;9.63;;;5.50;83.80;;;3.27;87.38;95846.59;4979012;28;20037;-72
2020/12/14 01:35:56;;;;;;;15.15;9.20;;;5.50;83.50;;;3.28;87.51;95837.81;4967833;28;20115;-72
2020/12/14 01:38:22;;;;;;;9.85;6.45;;;5.50;83.70;;;3.28;87.67;95832.63;4984479;28;20034;-73
2020/12/14 01:40:47;;;;;;;10.18;5.55;;;5.50;83.70;;;3.26;87.39;95813.75;4987313;28;20034;-72
2020/12/14 01:43:13;;;;;;;10.27;6.95;;;5.60;83.40;;;3.28;87.39;95804.03;4991009;28;20038;-72
2020/12/14 01:45:38;;;;;;;8.30;6.07;;;5.60;83.60;;;3.26;87.42;95792.97;4975695;28;20099;-72
2020/12/14 01:48:06;;;;;;;9.90;6.22;;;5.60;83.10;;;3.28;87.37;95785.84;4990922;28;20082;-72
2020/12/14 01:50:32;;;;;;;10.00;5.50;;;5.60;83.30;;;3.28;87.22;95791.03;4987406;28;22602;-71
2020/12/14 01:53:01;;;;;;;9.43;5.60;;;5.60;83.10;;;3.25;87.38;95786.13;4955263;28;20522;-72
2020/12/14 01:55:33;;;;;;;8.68;5.53;;;5.50;83.20;;;3.27;87.47;95779.81;4981997;28;20061;-72
2020/12/14 01:57:59;;;;;;;8.70;5.80;;;5.60;83.10;;;3.27;87.33;95784.19;4974823;28;20085;-72
2020/12/14 02:00:24;;;;;;;8.88;5.47;;;5.50;83.30;;;3.24;87.30;95780.13;4990575;28;20030;-72
2020/12/14 02:02:50;;;;;;;8.55;5.93;;;5.40;83.10;;;3.25;87.17;95775.75;4975010;28;20053;-72
2020/12/14 02:05:15;;;;;;;9.35;6.07;;;5.40;83.30;;;3.25;87.32;95770.53;4990887;28;20193;-72
2020/12/14 02:07:41;;;;;;;7.90;5.70;;;5.50;83.30;;;3.25;87.27;95771.34;4974588;28;20026;-72
2020/12/14 02:10:06;;;;;;;10.07;5.95;;;5.50;83.50;;;3.26;87.29;95777.38;4978578;28;20050;-72
2020/12/14 02:12:32;;;;;;;7.80;5.57;;;5.50;83.40;;;3.26;87.42;95772.19;5006600;28;20042;-72
2020/12/14 02:14:58;;;;;;;7.90;5.50;;;5.50;83.50;;;3.26;87.43;95770.38;4974757;28;20108;-72
2020/12/14 02:17:25;;;;;;;8.23;5.72;;;5.50;83.60;;;3.28;87.39;95770.25;4990425;28;20078;-72
2020/12/14 02:19:51;;;;;;;9.05;6.13;;;5.50;83.70;;;3.31;87.35;95780.31;4958500;28;20030;-72
2020/12/14 02:22:17;;;;;;;10.25;6.20;;;5.50;83.70;;;3.31;87.48;95781.13;4973762;28;20149;-71
2020/12/14 02:24:45;;;;;;;9.00;6.05;;;5.50;83.70;;;3.33;87.02;95784.41;4971352;28;20039;-71
2020/12/14 02:27:14;;;;;;;8.30;5.93;;;5.50;83.70;;;3.34;86.99;95785.22;4986571;28;20591;-72
2020/12/14 02:29:42;;;;;;;10.32;6.50;;;5.60;83.60;;;3.34;87.47;95790.41;4971328;28;20055;-72
2020/12/14 02:32:11;;;;;;;10.05;6.55;;;5.60;83.60;;;3.35;87.24;95792.03;4970117;28;20515;-73
2020/12/14 02:34:39;;;;;;;8.30;5.53;;;5.60;83.50;;;3.36;87.24;95788.47;4989692;28;20042;-71
2020/12/14 02:37:09;;;;;;;9.50;6.05;;;5.60;83.50;;;3.38;87.14;95787.34;4970010;28;20087;-72
2020/12/14 02:39:37;;;;;;;9.40;6.70;;;5.60;83.50;;;3.38;86.96;95773.53;4986678;28;20126;-72
2020/12/14 02:42:08;;;;;;;10.40;6.25;;;5.60;83.40;;;3.41;87.19;95775.06;4970029;28;20098;-72
2020/12/14 02:44:33;;;;;;;9.77;6.20;;;5.60;83.50;;;3.36;86.74;95768.50;4986874;28;20047;-72
2020/12/14 02:46:59;;;;;;;9.38;6.47;;;5.50;83.60;;;3.34;86.93;95759.22;4957394;28;20126;-72
2020/12/14 02:49:24;;;;;;;8.60;5.97;;;5.50;83.70;;;3.33;87.21;95775.78;4938884;28;20047;-72
2020/12/14 02:51:50;;;;;;;9.20;5.80;;;5.50;83.80;;;3.33;87.03;95794.81;4980569;28;20069;-72
2020/12/14 02:54:21;;;;;;;10.13;6.53;;;5.50;83.70;;;3.33;86.85;95804.38;4982474;28;20039;-72
2020/12/14 02:56:46;;;;;;;8.30;5.95;;;5.40;83.70;;;3.34;87.00;95803.41;4934836;28;20098;-72
2020/12/14 02:59:13;;;;;;;9.30;6.82;;;5.50;83.70;;;3.33;87.24;95797.41;4970907;28;20745;-72
2020/12/14 03:01:38;;;;;;;8.20;6.07;;;5.50;83.70;;;3.30;86.79;95791.69;4978606;28;20105;-72
2020/12/14 03:04:04;;;;;;;9.68;6.80;;;5.40;83.80;;;3.31;86.84;95790.72;4982612;28;20043;-72
2020/12/14 03:06:30;;;;;;;10.38;6.53;;;5.40;83.90;;;3.32;87.01;95781.97;4985200;28;20125;-73
2020/12/14 03:08:55;;;;;;;9.52;6.80;;;5.40;83.90;;;3.34;87.02;95790.41;4966538;28;20118;-72
2020/12/14 03:11:21;;;;;;;12.02;6.63;;;5.40;83.60;;;3.31;86.82;95801.13;4995729;28;20026;-72
2020/12/14 03:13:47;;;;;;;11.02;7.32;;;5.40;83.80;;;3.28;87.19;95793.63;4973736;28;20057;-72
2020/12/14 03:16:12;;;;;;;10.30;6.78;;;5.30;84.10;;;3.31;86.75;95801.13;4989942;28;20034;-72
2020/12/14 03:18:38;;;;;;;9.82;6.53;;;5.40;84.00;;;3.32;87.03;95800.16;4985752;28;20177;-72
2020/12/14 03:21:07;;;;;;;11.23;7.07;;;5.40;83.80;;;3.30;87.23;95800.31;4954304;28;20035;-72
2020/12/14 03:23:33;;;;;;;11.07;7.18;;;5.40;83.90;;;3.30;87.10;95791.69;4970157;28;20035;-72
2020/12/14 03:25:59;;;;;;;10.38;7.13;;;5.30;83.70;;;3.27;86.99;95789.41;4966355;28;20031;-72
2020/12/14 03:28:24;;;;;;;9.50;6.47;;;5.30;84.10;;;3.25;87.01;95775.75;4967846;28;20046;-71
2020/12/14 03:30:50;;;;;;;10.65;6.90;;;5.30;84.00;;;3.23;86.79;95768.09;4980642;28;20106;-72
2020/12/14 03:33:16;;;;;;;11.40;7.70;;;5.30;84.10;;;3.21;87.18;95774.41;4971533;28;20050;-71
2020/12/14 03:35:41;;;;;;;10.60;7.18;;;5.20;84.00;;;3.18;86.85;95764.34;4950121;28;20042;-72
2020/12/14 03:38:07;;;;;;;11.82;7.95;;;5.30;83.80;;;3.14;86.71;95779.38;4989099;28;20050;-72
2020/12/14 03:40:33;;;;;;;12.48;7.95;;;5.20;83.80;;;3.12;86.72;95775.31;4985743;28;20043;-72
2020/12/14 03:42:58;;;;;;;11.68;7.32;;;5.10;83.80;;;3.10;86.87;95769.44;4941282;28;20122;-71
2020/12/14 03:45:24;;;;;;;11.65;8.00;;;5.20;83.80;;;3.07;86.92;95773.97;4971479;28;20038;-72
2020/12/14 03:47:49;;;;;;;10.85;7.97;;;5.20;83.90;;;3.04;86.75;95776.88;4982765;28;20427;-72
2020/12/14 03:50:15;;;;;;;11.32;7.35;;;5.10;83.90;;;2.98;87.14;95774.91;4981875;28;20051;-73
2020/12/14 03:52:40;;;;;;;11.63;7.88;;;5.00;83.90;;;2.90;86.89;95782.59;4988967;28;20031;-72
2020/12/14 03:55:06;;;;;;;15.10;7.45;;;5.00;83.90;;;2.89;87.08;95791.38;4989500;28;20045;-71
2020/12/14 03:57:31;;;;;;;12.77;7.65;;;4.90;84.00;;;2.84;86.85;95798.78;4977056;28;20528;-72
2020/12/14 03:59:57;;;;;;;12.18;8.07;;;4.90;84.20;;;2.80;86.43;95801.84;4969691;28;20533;-73
2020/12/14 04:02:23;;;;;;;13.77;7.60;;;4.80;84.30;;;2.75;86.60;95792.72;4953465;28;20043;-72
2020/12/14 04:04:49;;;;;;;11.52;7.65;;;4.80;84.00;;;2.71;87.03;95795.72;4938978;28;20042;-73
2020/12/14 04:07:15;;;;;;;12.00;8.10;;;4.70;84.10;;;2.64;87.16;95802.50;4958353;28;20414;-72
2020/12/14 04:09:41;;;;;;;12.45;8.30;;;4.70;84.20;;;2.60;86.80;95793.38;4958676;28;20043;-72
2020/12/14 04:12:07;;;;;;;19.45;12.60;;;4.60;84.40;;;2.51;87.20;95791.66;4963390;28;20039;-72
2020/12/14 04:14:33;;;;;;;19.90;12.55;;;4.60;84.80;;;2.48;87.28;95790.16;4970664;28;20050;-72
2020/12/14 04:16:58;;;;;;;14.18;8.93;;;4.60;84.80;;;2.44;86.83;95794.81;4972687;28;20034;-72
2020/12/14 04:19:24;;;;;;;16.83;9.80;;;4.60;84.10;;;2.37;86.87;95786.00;4980953;28;20097;-71
2020/12/14 04:21:51;;;;;;;13.75;9.60;;;4.40;84.20;;;2.31;86.67;95786.59;4953791;28;20066;-72
2020/12/14 04:24:17;;;;;;;13.73;8.68;;;4.40;84.00;;;2.27;86.42;95785.25;4972008;28;20130;-71
2020/12/14 04:26:42;;;;;;;13.20;8.35;;;4.30;84.30;;;2.22;87.04;95787.44;4986627;28;20027;-72
2020/12/14 04:29:08;;;;;;;13.13;8.18;;;4.30;84.00;;;2.19;86.45;95794.69;4969986;28;20141;-72
2020/12/14 04:31:34;;;;;;;13.50;8.60;;;4.30;83.90;;;2.10;87.04;95786.03;4970935;28;20537;-72
2020/12/14 04:34:01;;;;;;;14.05;9.18;;;4.10;84.20;;;1.98;87.32;95794.94;4952630;28;20046;-71
2020/12/14 04:36:28;;;;;;;15.05;9.48;;;4.00;84.70;;;1.93;86.87;95786.78;4977743;28;20037;-72
2020/12/14 04:38:54;;;;;;;14.10;8.75;;;4.10;84.80;;;1.92;86.57;95790.31;4952659;28;20026;-72
2020/12/14 04:41:21;;;;;;;13.13;9.02;;;3.90;85.10;;;1.87;87.06;95793.34;4967647;28;20109;-72
2020/12/14 04:43:49;;;;;;;18.88;9.60;;;3.90;85.40;;;1.86;87.10;95806.47;4977615;28;20097;-71
2020/12/14 04:46:15;;;;;;;13.63;8.68;;;3.90;85.40;;;1.84;87.55;95810.03;4965567;28;20113;-71
2020/12/14 04:48:40;;;;;;;26.58;8.85;;;4.00;85.20;;;1.83;87.39;95804.97;4984741;28;20046;-71
2020/12/14 04:51:06;;;;;;;23.80;13.57;;;3.90;85.50;;;1.79;87.90;95801.00;4955033;28;20081;-72
2020/12/14 04:53:31;;;;;;;54.05;10.82;;;3.90;86.40;;;1.81;88.09;95797.34;4951600;28;20031;-71
2020/12/14 04:55:57;;;;;;;58.58;10.52;;;3.90;86.10;;;1.71;87.47;95791.38;4971639;28;20026;-72
2020/12/14 04:58:23;;;;;;;57.47;10.30;;;3.70;86.60;;;1.74;87.88;95796.25;4965619;28;20117;-71
2020/12/14 05:00:48;;;;;;;24.80;11.05;;;3.80;86.70;;;1.73;87.85;95796.41;4999334;28;20038;-72
2020/12/14 05:03:14;;;;;;;37.10;17.92;;;3.80;86.80;;;1.73;88.40;95781.66;4968623;28;20035;-71
2020/12/14 05:05:39;;;;;;;20.58;11.02;;;3.80;86.60;;;1.73;87.95;95792.03;4968358;28;20046;-72
2020/12/14 05:08:05;;;;;;;22.40;9.57;;;3.90;86.50;;;1.74;88.06;95792.84;4964188;28;20398;-72
2020/12/14 05:10:32;;;;;;;33.17;10.07;;;3.80;86.50;;;1.70;88.64;95786.31;4983420;28;20047;-72
2020/12/14 05:12:57;;;;;;;23.48;9.77;;;3.70;86.80;;;1.66;88.11;95796.16;4958278;28;20042;-72
2020/12/14 05:15:30;;;;;;;60.67;9.85;;;3.70;86.90;;;1.66;87.95;95796.16;4968413;28;20540;-72
2020/12/14 05:18:16;;;;;;;33.83;9.57;;;3.70;86.70;;;1.63;88.81;95799.03;4981380;28;20041;-73
2020/12/14 05:20:43;;;;;;;16.50;9.20;;;3.70;86.80;;;1.62;88.05;95797.41;4983901;28;20081;-69
2020/12/14 05:23:11;;;;;;;16.60;8.65;;;3.70;86.70;;;1.62;88.24;95804.38;4964834;28;20066;-72
2020/12/14 05:25:37;;;;;;;44.08;9.20;;;3.70;86.50;;;1.59;88.33;95799.47;4969882;28;20058;-68
2020/12/14 05:28:12;;;;;;;45.72;9.20;;;3.70;86.30;;;1.56;88.39;95813.50;4949151;28;20627;-68
2020/12/14 05:30:41;;;;;;;29.05;9.30;;;3.60;86.60;;;1.53;88.45;95804.22;4983682;28;20528;-67
2020/12/14 05:33:07;;;;;;;40.78;9.20;;;3.60;86.50;;;1.51;88.12;95800.97;4981673;28;20121;-70
2020/12/14 05:35:38;;;;;;;19.40;8.93;;;3.60;86.40;;;1.51;89.25;95807.94;4983318;28;20038;-70
2020/12/14 05:38:15;;;;;;;40.45;8.90;;;3.70;86.60;;;1.51;89.53;95802.75;4959511;28;20415;-70
2020/12/14 05:40:42;;;;;;;26.70;8.90;;;3.60;86.40;;;1.48;88.72;95798.66;4968058;28;20129;-70
2020/12/14 05:43:12;;;;;;;23.75;8.80;;;3.60;86.30;;;1.48;88.65;95803.03;4949236;28;20458;-71
2020/12/14 05:45:39;;;;;;;15.68;8.85;;;3.60;86.40;;;1.49;88.65;95800.28;4959060;28;20066;-70
2020/12/14 05:48:05;;;;;;;40.10;8.02;;;3.70;86.20;;;1.47;88.55;95801.41;4979527;28;20125;-70
2020/12/14 05:50:30;;;;;;;66.00;8.82;;;3.60;86.10;;;1.40;88.64;95797.75;4982304;28;20139;-70
2020/12/14 05:52:56;;;;;;;31.77;9.15;;;3.50;86.40;;;1.37;88.36;95800.63;4967600;28;20038;-70
2020/12/14 05:55:22;;;;;;;46.97;9.07;;;3.50;86.50;;;1.35;89.07;95811.09;4945277;28;20069;-70
2020/12/14 05:57:50;;;;;;;32.05;9.30;;;3.40;86.20;;;1.29;89.30;95801.28;4983466;28;20106;-70
2020/12/14 06:00:16;;;;;;;65.97;9.60;;;3.40;86.90;;;1.29;88.96;95810.84;4957872;28;20046;-70
2020/12/14 06:02:42;;;;;;;50.40;10.05;;;3.40;86.60;;;1.30;87.95;95812.47;4970812;28;20058;-70
2020/12/14 06:05:07;;;;;;;38.33;9.75;;;3.30;86.80;;;1.26;88.95;95808.53;4987264;28;20130;-70
2020/12/14 06:07:34;;;;;;;85.63;10.25;;;3.40;86.90;;;1.25;88.96;95812.06;4967919;28;20039;-70
2020/12/14 06:10:04;;;;;;;90.75;9.50;;;3.40;86.70;;;1.20;89.01;95805.53;4951494;28;20451;-70
2020/12/14 06:12:30;;;;;;;80.45;9.52;;;3.20;86.90;;;1.18;88.21;95814.41;4982088;28;20503;-70
2020/12/14 06:15:04;;;;;;;77.65;9.45;;;3.20;87.00;;;1.12;88.53;95818.34;4958154;28;20035;-71
2020/12/14 06:17:29;;;;;;;49.67;11.30;;;3.20;86.80;;;1.12;87.92;95817.53;4950354;28;20035;-70
2020/12/14 06:20:07;;;;;;;171.23;11.05;;;3.20;86.80;;;1.09;89.20;95816.03;4961025;28;20043;-70
2020/12/14 06:22:33;;;;;;;30.00;8.88;;;3.10;86.50;;;1.06;88.48;95818.91;4966285;28;20058;-73
2020/12/14 06:25:01;;;;;;;40.08;8.77;;;3.10;86.80;;;1.06;89.10;95810.31;4975460;28;20410;-70
2020/12/14 06:27:28;;;;;;;25.65;8.35;;;3.20;86.70;;;1.06;88.61;95813.72;4966447;28;20054;-71
2020/12/14 06:29:54;;;;;;;49.78;8.45;;;3.10;87.10;;;1.03;88.62;95813.19;4980972;28;20174;-73
2020/12/14 06:32:36;;;;;;;30.17;8.82;;;3.10;86.90;;;0.99;89.44;95809.25;4985348;28;20550;-69
2020/12/14 06:35:15;;;;;;;49.03;8.60;;;3.10;86.70;;;0.97;89.09;95811.97;4971180;28;20130;-73
2020/12/14 06:37:53;;;;;;;62.92;9.05;;;3.10;86.50;;;0.94;89.03;95808.84;4982085;28;20035;-67
2020/12/14 06:40:19;;;;;;;30.05;8.48;;;3.10;86.50;;;0.94;88.87;95816.63;4983517;28;20069;-70
2020/12/14 06:42:45;;;;;;;30.33;9.27;;;3.00;86.50;;;0.92;88.36;95816.75;4968796;28;20081;-69
2020/12/14 06:45:11;;;;;;;22.90;9.48;;;3.10;86.50;;;0.94;88.72;95820.00;4974868;28;20039;-68
2020/12/14 06:47:51;;;;;;;54.08;10.88;;;3.10;86.40;;;0.95;89.76;95821.66;4978526;28;20062;-69
2020/12/14 06:50:37;;;;;;;30.15;9.82;;;3.10;86.60;;;0.95;89.92;95819.06;4953146;28;20041;-69
2020/12/14 06:53:02;;;;;;;50.25;11.30;;;3.20;86.50;;;0.94;88.44;95821.78;4975370;28;20042;-70
2020/12/14 06:55:45;;;;;;;44.40;11.63;;;3.10;86.40;;;0.93;88.88;95823.56;4972231;28;20409;-71
2020/12/14 06:58:47;;;;;;;48.70;9.02;;;3.10;86.40;;;0.91;89.56;95821.09;4986360;28;20043;-67
2020/12/14 07:01:36;;;;;;;60.30;9.13;;;3.10;86.00;;;0.80;88.89;95813.47;4989514;28;20092;-68
2020/12/14 07:04:16;;;;;;;30.75;10.02;;;2.90;86.20;;;0.81;88.60;95816.88;4973245;28;20050;-67
2020/12/14 07:06:41;;;;;;;32.60;9.43;;;3.00;86.00;;;0.78;87.99;95812.78;4973285;28;20102;-68
2020/12/14 07:09:27;;;;;;;27.63;9.35;;;3.00;85.70;;;0.76;88.70;95813.88;4989184;28;20142;-64
2020/12/14 07:11:54;;;;;;;20.98;6.72;;;3.00;85.40;;;0.74;88.25;95819.19;4985505;28;20526;-65
2020/12/14 07:14:29;;;;;;;10.50;6.68;;;3.00;84.60;;;0.72;88.31;95812.50;4985573;28;20035;-66
2020/12/14 07:16:56;;;;;;;16.90;6.63;;;3.00;84.70;;;0.68;88.07;95821.47;4971400;28;20042;-64
2020/12/14 07:19:35;;;;;;;10.02;7.10;;;3.00;84.30;;;0.66;88.65;95828.56;4959558;28;20462;-65
2020/12/14 07:22:01;;;;;;;8.98;6.20;;;2.90;84.40;;;0.63;88.57;95827.06;4985308;28;20082;-64
2020/12/14 07:24:33;;;;;;;10.93;6.70;;;2.90;84.50;;;0.61;88.02;95834.97;4986456;28;20058;-66
2020/12/14 07:26:59;;;;;;;27.98;16.45;;;2.90;84.60;;;0.63;87.59;95831.44;4954131;28;20023;-68
2020/12/14 07:29:24;;;;;;;36.05;21.83;;;2.90;84.60;;;0.63;88.15;95831.44;4976052;28;20093;-64
2020/12/14 07:31:50;;;;;;;12.93;8.43;;;2.90;84.70;;;0.64;88.38;95831.28;4985337;28;20062;-68
2020/12/14 07:34:16;;;;;;;14.40;8.27;;;2.90;84.80;;;0.65;88.20;95827.75;4985964;28;20031;-70
2020/12/14 07:36:41;;;;;;;10.90;7.88;;;3.00;84.80;;;0.66;88.47;95831.16;4969814;28;20042;-66
2020/12/14 07:39:07;;;;;;;11.82;7.50;;;3.00;84.60;;;0.66;87.96;95831.16;4976384;28;20122;-69
2020/12/14 07:41:33;;;;;;;15.77;9.65;;;3.00;84.50;;;0.69;87.80;95841.25;4971884;28;20038;-67
2020/12/14 07:44:00;;;;;;;16.95;10.00;;;3.10;84.50;;;0.70;88.34;95838.53;4968958;28;20480;-68
2020/12/14 07:46:35;;;;;;;13.63;9.32;;;3.10;84.40;;;0.74;88.09;95833.91;4969854;28;20441;-66
2020/12/14 07:49:06;;;;;;;16.73;8.75;;;3.10;84.50;;;0.76;88.32;95837.16;4968092;28;20046;-67
2020/12/14 07:51:34;;;;;;;42.25;10.10;;;3.20;84.30;;;0.79;87.93;95844.66;4941991;28;20048;-66
2020/12/14 07:54:13;;;;;;;39.70;10.63;;;3.20;84.40;;;0.82;88.63;95837.44;4974746;28;20034;-66
2020/12/14 07:56:46;;;;;;;24.08;8.25;;;3.20;84.40;;;0.85;88.39;95844.94;4963093;28;20070;-69
2020/12/14 07:59:38;;;;;;;16.42;8.35;;;3.30;84.50;;;0.90;88.67;95842.75;4958679;28;20098;-67
2020/12/14 08:02:07;;;;;;;15.77;8.30;;;3.30;84.60;;;0.93;88.64;95833.91;4979270;28;20037;-67
2020/12/14 08:04:33;;;;;;;10.77;7.47;;;3.40;84.50;;;0.98;88.47;95844.69;4985889;28;20588;-67
2020/12/14 08:06:59;;;;;;;10.15;6.65;;;3.40;84.20;;;1.01;88.51;95841.00;4979512;28;20035;-67
2020/12/14 08:09:34;;;;;;;11.75;7.13;;;3.50;84.10;;;1.08;88.22;95848.06;4980990;28;20065;-67
2020/12/14 08:12:00;;;;;;;13.60;7.95;;;3.60;84.00;;;1.12;87.58;95846.03;4935546;28;20117;-72
2020/12/14 08:14:26;;;;;;;10.85;7.50;;;3.60;83.80;;;1.13;87.95;95840.72;4985843;28;20458;-73
2020/12/14 08:16:51;;;;;;;11.13;7.50;;;3.60;83.90;;;1.17;88.31;95846.44;4981346;28;20053;-73
2020/12/14 08:19:19;;;;;;;12.93;7.93;;;3.60;84.00;;;1.22;88.45;95850.25;4966601;28;20042;-73
2020/12/14 08:22:00;;;;;;;11.32;7.65;;;3.70;84.40;;;1.32;88.82;95849.41;4931868;28;20105;-69
2020/12/14 08:24:27;;;;;;;11.23;7.38;;;3.90;84.20;;;1.36;88.45;95850.78;4986649;28;20061;-66
2020/12/14 08:27:03;;;;;;;10.88;6.70;;;3.80;83.90;;;1.42;88.25;95850.25;4966651;28;20671;-66
2020/12/14 08:29:29;;;;;;;11.70;6.60;;;3.80;83.70;;;1.45;88.12;95844.78;4966534;28;20075;-67
2020/12/14 08:31:57;;;;;;;10.50;6.65;;;3.90;83.80;;;1.51;87.92;95844.22;4969120;28;20039;-66
2020/12/14 08:34:34;;;;;;;9.93;6.05;;;4.00;83.60;;;1.56;88.30;95846.38;4999885;28;20083;-66
2020/12/14 08:37:00;;;;;;;8.93;6.00;;;4.00;83.30;;;1.57;88.04;95853.19;4984610;28;20084;-66
2020/12/14 08:39:26;;;;;;;9.55;5.35;;;4.00;83.20;;;1.62;87.59;95857.03;4983153;28;20035;-66
2020/12/14 08:42:11;;;;;;;11.82;6.13;;;4.10;82.90;;;1.66;87.79;95858.38;4995383;28;20050;-65
2020/12/14 08:44:39;;;;;;;10.98;6.03;;;4.10;83.10;;;1.72;87.82;95855.22;4968312;28;20134;-66
2020/12/14 08:47:17;;;;;;;17.40;9.70;;;4.10;82.80;;;1.76;88.03;95848.78;4982979;28;20086;-67
2020/12/14 08:49:44;;;;;;;9.70;6.63;;;4.20;83.30;;;1.78;87.28;95846.88;4986895;28;20046;-66
2020/12/14 08:52:19;;;;;;;8.13;5.55;;;4.10;82.60;;;1.82;86.78;95858.63;4935758;28;20129;-65
2020/12/14 08:54:56;;;;;;;8.30;5.15;;;4.10;82.40;;;1.88;86.65;95857.22;4971372;28;20490;-66
2020/12/14 08:57:29;;;;;;;7.22;5.05;;;4.20;82.30;;;1.91;86.85;95856.94;4952670;28;20130;-65
2020/12/14 09:00:04;;;;;;;7.30;5.00;;;4.20;82.00;;;1.97;87.13;95860.75;4968165;28;20035;-72
2020/12/14 09:02:30;;;;;;;6.90;5.15;;;4.30;81.80;;;2.06;87.01;95870.28;4985609;28;20109;-66
2020/12/14 09:04:57;;;;;;;6.78;4.63;;;4.40;81.80;;;2.10;87.18;95866.44;4970418;28;20046;-67
2020/12/14 09:07:24;;;;;;;7.35;5.22;;;4.50;81.80;;;2.16;86.56;95865.88;4983806;28;20043;-68
2020/12/14 09:09:49;;;;;;;7.90;5.47;;;4.40;81.20;;;2.22;86.71;95883.44;4983138;28;20559;-68
2020/12/14 09:12:15;;;;;;;7.75;5.05;;;4.60;80.80;;;2.26;86.22;95886.56;4967715;28;20039;-64
2020/12/14 09:14:41;;;;;;;6.75;4.50;;;4.60;80.90;;;2.32;86.70;95881.66;4961871;28;20088;-64
2020/12/14 09:17:13;;;;;;;7.40;4.35;;;4.70;80.90;;;2.40;85.74;95884.34;4987423;28;20049;-64
2020/12/14 09:19:39;;;;;;;9.10;4.80;;;4.80;80.70;;;2.50;86.32;95888.69;4988141;28;20100;-66
2020/12/14 09:22:04;;;;;;;7.07;4.43;;;4.90;80.50;;;2.53;86.26;95881.41;4967842;28;20411;-66
2020/12/14 09:24:32;;;;;;;7.90;4.45;;;5.00;79.80;;;2.59;86.08;95882.59;4967143;28;20075;-65
2020/12/14 09:27:09;;;;;;;5.35;3.58;;;5.10;79.00;;;2.60;84.56;95885.06;4968212;28;20030;-64
2020/12/14 09:29:39;;;;;;;6.90;4.03;;;5.10;78.60;;;2.66;85.69;95892.25;4974888;28;20077;-65
2020/12/14 09:32:05;;;;;;;6.68;4.35;;;5.00;78.60;;;2.72;85.96;95888.28;4968057;28;20035;-68
2020/12/14 09:34:31;;;;;;;6.50;4.40;;;5.20;78.80;;;2.81;85.54;95882.22;4968758;28;20035;-69
2020/12/14 09:36:59;;;;;;;8.98;4.90;;;5.30;78.70;;;2.90;85.27;95873.53;4970813;28;20056;-69
2020/12/14 09:39:25;;;;;;;10.60;6.55;;;5.50;78.40;;;2.97;85.84;95873.78;4988058;28;20092;-72
2020/12/14 09:41:51;;;;;;;24.05;13.93;;;5.60;78.60;;;3.05;86.12;95869.47;4987065;28;20081;-69
2020/12/14 09:44:17;;;;;;;11.32;6.82;;;5.70;78.60;;;3.13;85.75;95865.28;4986706;28;20058;-70
2020/12/14 09:46:43;;;;;;;6.95;4.63;;;5.90;78.30;;;3.16;85.62;95863.22;4957427;28;20424;-70
2020/12/14 09:49:08;;;;;;;6.88;4.55;;;5.90;77.30;;;3.27;85.23;95867.38;4954197;28;20114;-65
2020/12/14 09:51:35;;;;;;;6.53;4.57;;;6.00;76.80;;;3.30;85.71;95862.69;4974896;28;20031;-66
2020/12/14 09:54:01;;;;;;;8.10;4.63;;;6.10;76.30;;;3.37;85.37;95858.50;4967586;28;20111;-64
2020/12/14 09:56:27;;;;;;;11.93;6.85;;;6.40;75.20;;;3.53;85.65;95863.03;4989651;28;20094;-65
2020/12/14 09:58:52;;;;;;;10.18;5.00;;;6.80;74.00;;;3.72;85.32;95866.41;4966965;28;20035;-71
2020/12/14 10:01:18;;;;;;;7.22;4.97;;;7.10;72.80;;;3.92;85.39;95862.66;4972627;28;20069;-67
2020/12/14 10:03:43;;;;;;;7.18;5.10;;;7.50;71.40;;;4.08;84.88;95857.56;4983068;28;20568;-69
2020/12/14 10:06:11;;;;;;;8.45;5.55;;;7.70;70.30;;;4.25;84.42;95859.25;4990676;28;20053;-68
2020/12/14 10:08:36;;;;;;;8.30;5.55;;;8.20;69.20;;;4.50;84.68;95861.94;4973923;28;20386;-72
2020/12/14 10:11:02;;;;;;;13.48;8.60;;;8.70;67.50;;;4.75;85.00;95861.09;4991437;28;20050;-71
2020/12/14 10:13:27;;;;;;;9.30;6.07;;;9.60;65.80;;;4.98;84.46;95868.28;4959034;28;20497;-66
2020/12/14 10:15:53;;;;;;;6.97;5.38;;;9.80;63.90;;;5.20;84.76;95870.28;5006721;28;20038;-69
2020/12/14 10:18:19;;;;;;;8.13;4.88;;;9.60;63.80;;;5.35;83.88;95863.44;4973525;28;20179;-66
2020/12/14 10:20:44;;;;;;;6.82;4.90;;;9.60;63.50;;;5.46;83.41;95863.13;4955135;28;20051;-71
2020/12/14 10:23:11;;;;;;;6.20;4.53;;;9.30;64.10;;;5.52;82.94;95865.09;4971241;28;20109;-69
2020/12/14 10:25:37;;;;;;;5.45;4.30;;;9.20;64.70;;;5.59;83.34;95859.22;4975081;28;20046;-69
2020/12/14 10:28:03;;;;;;;6.95;4.70;;;9.20;64.90;;;5.62;81.86;95869.31;4954122;28;20470;-66
2020/12/14 10:30:29;;;;;;;5.68;4.30;;;9.00;64.40;;;5.53;82.50;95866.72;4975255;28;20031;-68